Time;durP1;ratioP1;P1;durP2;ratioP2;P2;SDS_P1;SDS_P2;PMS_P1;PMS_P2;Temp;Humidity;BMP_temperature;BMP_pressure;BME280_temperature;BME280_humidity;BME280_pressure;Samples;Min_cycle;Max_cycle;Signal;HPM_P1;HPM_P2
2022/07/08 00:01:46;;;;;;;1.38;1.10;;;18.60;99.90;;;;;;5075567;28;20318;-62
2022/07/08 00:04:13;;;;;;;3.97;1.35;;;18.60;99.90;;;;;;5075130;28;20259;-62
2022/07/08 00:06:39;;;;;;;4.85;1.75;;;18.50;99.90;;;;;;5074710;28;20208;-62
2022/07/08 00:09:07;;;;;;;5.53;1.48;;;18.50;99.90;;;;;;5074695;28;20224;-62
2022/07/08 00:11:35;;;;;;;3.33;1.30;;;18.50;99.90;;;;;;5074814;28;20502;-62
2022/07/08 00:14:02;;;;;;;4.82;1.50;;;18.40;99.90;;;;;;5074436;28;20672;-62
2022/07/08 00:16:29;;;;;;;4.63;1.45;;;18.30;99.90;;;;;;5074532;28;20208;-62
2022/07/08 00:18:56;;;;;;;5.85;1.58;;;18.30;99.90;;;;;;5074834;28;20205;-62
2022/07/08 00:21:23;;;;;;;3.97;1.63;;;18.30;99.90;;;;;;5074637;28;20590;-62
2022/07/08 00:23:50;;;;;;;4.88;1.50;;;18.30;99.90;;;;;;5074621;28;20300;-62
2022/07/08 00:26:16;;;;;;;4.47;1.67;;;18.30;99.90;;;;;;5074164;28;20205;-62
2022/07/08 00:28:44;;;;;;;3.47;1.30;;;18.30;99.90;;;;;;5074257;28;20201;-62
2022/07/08 00:31:11;;;;;;;5.13;1.77;;;18.30;99.90;;;;;;5074504;28;20220;-62
2022/07/08 00:33:38;;;;;;;6.03;1.80;;;18.20;99.90;;;;;;5074270;28;20726;-61
2022/07/08 00:36:05;;;;;;;6.40;1.60;;;18.10;99.90;;;;;;5074077;28;20216;-63
2022/07/08 00:38:32;;;;;;;6.40;1.50;;;17.90;99.90;;;;;;5074325;28;20208;-62
2022/07/08 00:40:58;;;;;;;8.10;1.70;;;17.80;99.90;;;;;;5074076;28;20232;-62
2022/07/08 00:43:27;;;;;;;7.05;1.80;;;17.80;99.90;;;;;;5073931;28;20600;-61
2022/07/08 00:45:55;;;;;;;5.07;1.92;;;17.70;99.90;;;;;;5072704;28;20205;-61
2022/07/08 00:48:21;;;;;;;7.25;1.80;;;17.60;99.90;;;;;;5074391;28;20212;-61
2022/07/08 00:50:48;;;;;;;6.75;1.73;;;17.40;99.90;;;;;;5074003;28;20232;-62
2022/07/08 00:53:15;;;;;;;5.10;1.80;;;17.40;99.90;;;;;;5073919;28;20204;-62
2022/07/08 00:55:42;;;;;;;8.65;1.85;;;17.30;99.90;;;;;;5073612;28;20209;-62
2022/07/08 00:58:09;;;;;;;6.13;2.10;;;17.20;99.90;;;;;;5074121;28;20212;-62
2022/07/08 01:00:36;;;;;;;7.88;1.75;;;17.30;99.90;;;;;;5073912;28;20225;-62
2022/07/08 01:03:04;;;;;;;4.95;2.00;;;17.20;99.90;;;;;;5073898;28;20205;-61
2022/07/08 01:05:31;;;;;;;7.25;1.98;;;17.20;99.90;;;;;;5073841;28;20204;-61
2022/07/08 01:07:58;;;;;;;6.43;2.13;;;17.30;99.90;;;;;;5073581;28;20278;-62
2022/07/08 01:10:24;;;;;;;5.22;1.90;;;17.40;99.90;;;;;;5073155;28;20233;-61
2022/07/08 01:12:51;;;;;;;8.52;1.92;;;17.50;99.90;;;;;;5073852;28;20209;-62
2022/07/08 01:15:20;;;;;;;8.38;2.40;;;17.50;99.90;;;;;;5073348;28;20630;-61
2022/07/08 01:17:48;;;;;;;3.90;1.90;;;17.50;99.90;;;;;;5073619;28;20205;-62
2022/07/08 01:20:17;;;;;;;4.95;1.95;;;17.50;99.90;;;;;;5073349;28;20233;-61
2022/07/08 01:22:45;;;;;;;5.82;1.90;;;17.50;99.90;;;;;;5073210;28;20200;-62
2022/07/08 01:25:12;;;;;;;6.72;1.88;;;17.40;99.90;;;;;;5073224;28;20205;-61
2022/07/08 01:27:39;;;;;;;7.03;2.42;;;17.40;99.90;;;;;;5073418;28;20209;-62
2022/07/08 01:30:08;;;;;;;5.20;1.80;;;17.30;99.90;;;;;;5073106;28;20673;-62
2022/07/08 01:32:36;;;;;;;6.63;2.35;;;17.30;99.90;;;;;;5073171;28;20225;-62
2022/07/08 01:35:03;;;;;;;5.32;1.83;;;17.30;99.90;;;;;;5073338;28;20212;-64
2022/07/08 01:37:30;;;;;;;4.72;2.00;;;17.20;99.90;;;;;;5073028;28;20208;-62
2022/07/08 01:39:58;;;;;;;3.65;1.73;;;17.10;99.90;;;;;;5072863;28;20244;-62
2022/07/08 01:42:25;;;;;;;5.68;1.95;;;17.00;99.90;;;;;;5073006;28;20208;-62
2022/07/08 01:44:52;;;;;;;7.00;2.28;;;17.00;99.90;;;;;;5072654;28;20270;-63
2022/07/08 01:47:19;;;;;;;8.82;2.35;;;17.00;99.90;;;;;;5072751;28;20209;-62
2022/07/08 01:49:45;;;;;;;5.70;2.00;;;17.00;99.90;;;;;;5073014;28;20232;-62
2022/07/08 01:52:13;;;;;;;6.25;2.15;;;16.90;99.90;;;;;;5073227;28;20225;-62
2022/07/08 01:54:39;;;;;;;5.50;2.08;;;16.90;99.90;;;;;;5072846;28;20676;-62
2022/07/08 01:57:18;;;;;;;7.43;2.20;;;17.00;99.90;;;;;;5072079;28;20688;-62
2022/07/08 01:59:47;;;;;;;4.25;2.03;;;17.10;99.90;;;;;;5072697;28;20264;-62
2022/07/08 02:02:16;;;;;;;6.72;2.42;;;17.20;99.90;;;;;;5072480;28;20680;-62
2022/07/08 02:04:43;;;;;;;8.27;2.22;;;17.30;99.90;;;;;;5072797;28;20200;-62
2022/07/08 02:07:10;;;;;;;6.20;1.95;;;17.30;99.90;;;;;;5072464;28;20204;-61
2022/07/08 02:09:38;;;;;;;7.78;2.40;;;17.30;99.90;;;;;;5072461;28;20229;-61
2022/07/08 02:12:19;;;;;;;4.97;1.90;;;17.20;99.90;;;;;;5072334;28;20578;-62
2022/07/08 02:14:46;;;;;;;6.68;2.40;;;17.20;99.90;;;;;;5072397;28;20227;-62
2022/07/08 02:17:12;;;;;;;7.20;2.28;;;17.20;99.90;;;;;;5072043;28;20204;-62
2022/07/08 02:19:40;;;;;;;10.98;2.65;;;17.20;99.90;;;;;;5072333;28;20236;-62
2022/07/08 02:22:08;;;;;;;7.85;2.40;;;17.30;99.90;;;;;;5072290;28;20259;-62
2022/07/08 02:24:34;;;;;;;7.03;2.20;;;17.30;99.90;;;;;;5072273;28;20258;-62
2022/07/08 02:27:01;;;;;;;8.93;2.28;;;17.30;99.90;;;;;;5071854;28;20209;-62
2022/07/08 02:29:29;;;;;;;10.98;2.10;;;17.20;99.90;;;;;;5072098;28;20735;-62
2022/07/08 02:31:56;;;;;;;5.45;2.05;;;17.30;99.90;;;;;;5072273;28;20227;-62
2022/07/08 02:34:23;;;;;;;6.60;2.30;;;17.30;99.90;;;;;;5072186;28;20209;-62
2022/07/08 02:36:49;;;;;;;6.07;2.25;;;17.40;99.90;;;;;;5072017;28;20208;-61
2022/07/08 02:39:16;;;;;;;6.78;2.33;;;17.40;99.90;;;;;;5071913;28;20704;-62
2022/07/08 02:41:43;;;;;;;4.47;2.00;;;17.40;99.90;;;;;;5072013;28;20219;-62
2022/07/08 02:44:10;;;;;;;8.30;2.40;;;17.30;99.90;;;;;;5071957;28;20643;-62
2022/07/08 02:46:38;;;;;;;7.03;2.13;;;17.20;99.90;;;;;;5071841;28;20220;-62
2022/07/08 02:49:05;;;;;;;6.43;2.15;;;17.20;99.90;;;;;;5072216;28;20415;-62
2022/07/08 02:51:32;;;;;;;4.57;2.03;;;17.20;99.90;;;;;;5071701;28;20704;-61
2022/07/08 02:53:58;;;;;;;6.18;2.40;;;17.10;99.90;;;;;;5071986;28;20256;-62
2022/07/08 02:56:25;;;;;;;9.45;2.80;;;17.00;99.90;;;;;;5071903;28;20205;-62
2022/07/08 02:58:52;;;;;;;5.35;2.25;;;17.00;99.90;;;;;;5071683;28;20269;-62
2022/07/08 03:01:18;;;;;;;5.97;2.42;;;17.00;99.90;;;;;;5072104;28;20196;-62
2022/07/08 03:03:46;;;;;;;6.68;2.50;;;17.10;99.90;;;;;;5071929;28;20251;-62
2022/07/08 03:06:13;;;;;;;6.63;2.22;;;17.00;99.90;;;;;;5071603;28;20208;-62
2022/07/08 03:08:40;;;;;;;5.05;1.90;;;17.00;99.90;;;;;;5072136;28;20531;-62
2022/07/08 03:11:07;;;;;;;7.72;2.72;;;16.90;99.90;;;;;;5075536;28;20315;-62
2022/07/08 03:13:35;;;;;;;11.43;2.60;;;16.90;99.90;;;;;;5076015;28;20215;-62
2022/07/08 03:16:02;;;;;;;5.53;2.23;;;16.90;99.90;;;;;;5075574;28;20311;-62
2022/07/08 03:18:29;;;;;;;4.68;2.10;;;16.90;99.90;;;;;;5075890;28;20623;-62
2022/07/08 03:20:57;;;;;;;9.35;2.20;;;16.80;99.90;;;;;;5075913;28;20232;-62
2022/07/08 03:23:23;;;;;;;6.63;2.35;;;16.70;99.90;;;;;;5075590;28;20254;-62
2022/07/08 03:25:50;;;;;;;6.90;1.70;;;16.60;99.90;;;;;;5075268;28;20667;-62
2022/07/08 03:28:17;;;;;;;7.73;2.80;;;16.40;99.90;;;;;;5075919;28;20201;-61
2022/07/08 03:30:43;;;;;;;7.38;2.15;;;16.20;99.90;;;;;;5075809;28;20237;-62
2022/07/08 03:33:10;;;;;;;10.93;2.90;;;16.10;99.90;;;;;;5075352;28;20228;-62
2022/07/08 03:35:37;;;;;;;5.63;2.07;;;16.10;99.90;;;;;;5075170;28;20209;-62
2022/07/08 03:38:05;;;;;;;5.63;2.03;;;16.00;99.90;;;;;;5075952;28;20209;-62
2022/07/08 03:43:16;;;;;;;5.88;2.30;;;15.80;99.90;;;;;;5076988;28;20279;-61
2022/07/08 03:45:43;;;;;;;8.30;2.28;;;15.80;99.90;;;;;;5076849;28;20211;-64
2022/07/08 03:48:09;;;;;;;7.57;2.63;;;15.80;99.90;;;;;;5077210;28;20209;-62
2022/07/08 03:50:36;;;;;;;6.47;2.08;;;15.70;99.90;;;;;;5077275;28;20350;-63
2022/07/08 03:53:04;;;;;;;5.80;1.77;;;15.60;99.90;;;;;;5076792;28;20229;-63
2022/07/08 03:55:31;;;;;;;8.95;2.28;;;15.50;99.90;;;;;;5076127;28;20205;-63
2022/07/08 03:57:58;;;;;;;9.37;2.83;;;15.50;99.90;;;;;;5076656;28;20231;-63
2022/07/08 04:00:25;;;;;;;6.20;1.90;;;15.50;99.90;;;;;;5076615;28;20224;-62
2022/07/08 04:02:52;;;;;;;8.03;1.77;;;15.40;99.90;;;;;;5077450;28;20232;-63
2022/07/08 04:05:19;;;;;;;6.67;2.23;;;15.50;99.90;;;;;;5077806;28;20201;-62
2022/07/08 04:07:46;;;;;;;6.37;2.10;;;15.60;99.90;;;;;;5077021;28;20664;-62
2022/07/08 04:10:14;;;;;;;7.27;1.90;;;15.70;99.90;;;;;;5077529;28;20229;-62
2022/07/08 04:12:41;;;;;;;7.87;2.10;;;15.80;99.90;;;;;;5077496;28;20239;-62
2022/07/08 04:15:08;;;;;;;6.57;2.20;;;15.90;99.90;;;;;;5078504;28;20212;-63
2022/07/08 04:17:35;;;;;;;3.20;1.60;;;15.90;99.90;;;;;;5077503;28;20219;-63
2022/07/08 04:20:02;;;;;;;6.13;2.23;;;15.80;99.90;;;;;;5076100;28;20279;-62
2022/07/08 04:22:29;;;;;;;5.18;2.10;;;15.60;99.90;;;;;;5076274;28;20201;-63
2022/07/08 04:24:55;;;;;;;6.10;2.33;;;15.70;99.90;;;;;;5076418;28;20695;-63
2022/07/08 04:27:23;;;;;;;6.13;2.03;;;15.80;99.90;;;;;;5076589;28;20212;-62
2022/07/08 04:29:50;;;;;;;4.37;1.90;;;15.90;99.90;;;;;;5075990;28;20777;-62
2022/07/08 04:32:17;;;;;;;7.38;2.13;;;16.00;99.90;;;;;;5075944;28;20589;-62
2022/07/08 04:34:43;;;;;;;6.97;2.07;;;16.10;99.90;;;;;;5075680;28;20201;-62
2022/07/08 04:37:10;;;;;;;5.47;1.83;;;16.30;99.90;;;;;;5075002;28;20576;-61
2022/07/08 04:39:37;;;;;;;4.57;1.80;;;16.30;99.90;;;;;;5075105;28;20243;-62
2022/07/08 04:42:04;;;;;;;4.57;1.97;;;16.40;99.90;;;;;;5073959;28;20267;-62
2022/07/08 04:44:32;;;;;;;7.00;3.93;;;16.40;99.90;;;;;;5074643;28;20205;-62
2022/07/08 04:46:59;;;;;;;5.30;2.20;;;16.40;99.90;;;;;;5075121;28;20205;-61
2022/07/08 04:49:26;;;;;;;6.10;2.20;;;16.50;99.90;;;;;;5078273;28;20228;-61
2022/07/08 04:51:52;;;;;;;7.88;2.22;;;16.60;99.90;;;;;;5078588;28;20220;-61
2022/07/08 04:54:19;;;;;;;5.47;1.80;;;16.80;99.90;;;;;;5076073;28;20691;-62
2022/07/08 04:56:46;;;;;;;11.27;2.40;;;16.90;99.90;;;;;;5074926;28;20209;-63
2022/07/08 04:59:12;;;;;;;11.43;2.55;;;17.10;99.90;;;;;;5075090;28;20208;-62
2022/07/08 05:01:40;;;;;;;6.90;2.00;;;17.50;99.90;;;;;;5074510;28;20209;-63
2022/07/08 05:04:07;;;;;;;5.18;1.83;;;18.20;99.90;;;;;;5074726;28;20213;-64
2022/07/08 05:06:34;;;;;;;7.75;2.15;;;19.40;99.90;;;;;;5074142;28;20211;-64
2022/07/08 05:09:01;;;;;;;5.45;2.25;;;21.10;99.90;;;;;;5074687;28;20209;-64
2022/07/08 05:11:27;;;;;;;5.07;1.63;;;22.50;99.90;;;;;;5074676;28;20225;-63
2022/07/08 05:13:54;;;;;;;6.97;1.90;;;23.00;98.10;;;;;;5074401;28;20236;-63
2022/07/08 05:16:21;;;;;;;6.22;1.80;;;23.60;96.20;;;;;;5074332;28;20208;-64
2022/07/08 05:18:49;;;;;;;5.50;1.85;;;24.60;93.80;;;;;;5074391;28;20637;-63
2022/07/08 05:21:15;;;;;;;4.07;1.48;;;25.80;92.70;;;;;;5074214;28;20292;-63
2022/07/08 05:23:42;;;;;;;5.82;1.80;;;27.20;90.10;;;;;;5073341;28;20205;-62
2022/07/08 05:26:09;;;;;;;5.25;1.80;;;28.40;81.60;;;;;;5073097;28;20205;-63
2022/07/08 05:28:35;;;;;;;6.00;1.80;;;29.10;77.10;;;;;;5073406;28;20668;-63
2022/07/08 05:31:02;;;;;;;4.95;1.63;;;29.70;72.10;;;;;;5073404;28;20228;-63
2022/07/08 05:33:29;;;;;;;3.78;1.55;;;29.50;69.30;;;;;;5072269;28;20704;-63
2022/07/08 05:35:57;;;;;;;6.55;1.75;;;28.50;70.10;;;;;;5072798;28;20302;-63
2022/07/08 05:38:23;;;;;;;6.97;1.75;;;26.90;73.60;;;;;;5073919;28;20216;-62
2022/07/08 05:40:50;;;;;;;9.50;2.22;;;25.40;77.40;;;;;;5037374;28;1045386;-65
2022/07/08 05:43:17;;;;;;;8.45;1.80;;;24.80;80.10;;;;;;5074941;28;20201;-62
2022/07/08 05:45:43;;;;;;;6.03;1.65;;;25.50;79.90;;;;;;5074162;28;20204;-62
2022/07/08 05:48:10;;;;;;;10.13;2.22;;;26.40;77.30;;;;;;5074270;28;20215;-62
2022/07/08 05:50:37;;;;;;;4.88;1.75;;;27.50;71.70;;;;;;5074993;28;20731;-62
2022/07/08 05:53:05;;;;;;;5.15;1.75;;;27.70;70.00;;;;;;5074180;28;20229;-62
2022/07/08 05:55:32;;;;;;;7.63;1.95;;;27.30;70.30;;;;;;5074027;28;20576;-62
2022/07/08 05:57:58;;;;;;;5.57;1.88;;;27.00;71.80;;;;;;5074030;28;20640;-63
2022/07/08 06:00:25;;;;;;;6.00;1.60;;;27.10;70.20;;;;;;5074587;28;20228;-63
2022/07/08 06:02:52;;;;;;;5.47;1.42;;;27.30;68.70;;;;;;5074315;28;20291;-62
2022/07/08 06:05:19;;;;;;;9.48;1.70;;;27.20;69.20;;;;;;5074221;28;20205;-63
2022/07/08 06:07:46;;;;;;;5.90;1.70;;;27.40;69.10;;;;;;5073863;28;20276;-62
2022/07/08 06:10:14;;;;;;;5.88;1.58;;;27.40;68.90;;;;;;5074670;28;20224;-64
2022/07/08 06:12:40;;;;;;;4.72;1.70;;;27.30;69.10;;;;;;5073892;28;20445;-64
2022/07/08 06:15:13;;;;;;;5.72;1.55;;;27.60;68.90;;;;;;5069275;28;21035;-62
2022/07/08 06:17:40;;;;;;;5.18;1.50;;;28.70;65.50;;;;;;5072677;28;20205;-62
2022/07/08 06:20:08;;;;;;;4.45;1.60;;;29.60;62.50;;;;;;5072318;28;20759;-62
2022/07/08 06:22:35;;;;;;;4.68;1.70;;;29.70;61.60;;;;;;5072670;28;20753;-62
2022/07/08 06:25:02;;;;;;;4.57;1.70;;;30.10;61.10;;;;;;5072078;28;20208;-62
2022/07/08 06:27:30;;;;;;;6.65;1.77;;;31.00;58.60;;;;;;5072159;28;20208;-62
2022/07/08 06:29:56;;;;;;;7.05;1.80;;;31.30;57.20;;;;;;5073443;28;20221;-66
2022/07/08 06:32:23;;;;;;;4.30;1.52;;;31.40;56.80;;;;;;5072256;28;20231;-60
2022/07/08 06:34:50;;;;;;;7.18;1.63;;;32.40;54.70;;;;;;5073108;28;20250;-63
2022/07/08 06:37:17;;;;;;;4.30;1.67;;;32.60;54.30;;;;;;5071743;28;20240;-64
2022/07/08 06:39:44;;;;;;;6.05;1.60;;;33.10;51.80;;;;;;5071830;28;20271;-61
2022/07/08 06:42:10;;;;;;;3.78;1.50;;;34.30;50.00;;;;;;5063548;28;20213;-63
2022/07/08 06:44:38;;;;;;;5.90;1.35;;;35.30;46.70;;;;;;5071955;28;20208;-62
2022/07/08 06:47:05;;;;;;;8.63;1.80;;;35.60;46.10;;;;;;5071691;28;20209;-61
2022/07/08 06:49:32;;;;;;;6.82;1.65;;;36.00;45.40;;;;;;5071339;28;20220;-61
2022/07/08 06:51:59;;;;;;;5.15;1.05;;;36.20;44.60;;;;;;5071730;28;20278;-62
2022/07/08 06:54:37;;;;;;;5.05;1.30;;;35.90;42.80;;;;;;5072167;28;20719;-62
2022/07/08 06:57:06;;;;;;;3.63;1.27;;;34.90;43.70;;;;;;5072453;28;20220;-62
2022/07/08 06:59:33;;;;;;;4.70;1.35;;;33.20;44.60;;;;;;5071802;28;20224;-62
2022/07/08 07:02:01;;;;;;;8.60;1.48;;;33.30;45.00;;;;;;5072096;28;20281;-62
2022/07/08 07:04:28;;;;;;;3.78;1.42;;;33.30;45.00;;;;;;5071565;28;20882;-65
2022/07/08 07:06:55;;;;;;;5.15;1.67;;;33.30;45.00;;;;;;5072275;28;20212;-62
2022/07/08 07:09:22;;;;;;;4.57;1.33;;;34.70;42.60;;;;;;5071759;28;20205;-61
2022/07/08 07:11:48;;;;;;;4.47;1.05;;;36.20;39.80;;;;;;5071956;28;20208;-62
2022/07/08 07:14:15;;;;;;;3.13;1.10;;;37.20;39.00;;;;;;5071960;28;20225;-62
2022/07/08 07:16:42;;;;;;;5.75;1.25;;;36.90;39.70;;;;;;5070917;28;20212;-63
2022/07/08 07:19:11;;;;;;;4.38;1.35;;;36.10;40.20;;;;;;5071137;28;20227;-61
2022/07/08 07:21:38;;;;;;;3.63;1.10;;;34.60;41.60;;;;;;5071759;28;20235;-62
2022/07/08 07:24:05;;;;;;;4.85;1.10;;;32.20;44.60;;;;;;5071495;28;20323;-61
2022/07/08 07:26:32;;;;;;;2.47;1.20;;;29.80;46.70;;;;;;5073411;28;20212;-62
2022/07/08 07:28:58;;;;;;;3.55;1.05;;;29.40;47.40;;;;;;5073509;28;20204;-62
2022/07/08 07:31:25;;;;;;;4.40;1.40;;;29.20;47.60;;;;;;5073223;28;20229;-62
2022/07/08 07:33:52;;;;;;;4.35;1.17;;;27.80;49.70;;;;;;5074301;28;20286;-62
2022/07/08 07:36:20;;;;;;;3.45;1.27;;;26.80;51.50;;;;;;5076503;28;20205;-61
2022/07/08 07:38:46;;;;;;;5.93;1.25;;;26.40;51.40;;;;;;5076363;28;20223;-61
2022/07/08 07:41:13;;;;;;;4.47;1.20;;;25.70;53.10;;;;;;5076558;28;20681;-61
2022/07/08 07:43:40;;;;;;;3.13;1.13;;;25.60;53.80;;;;;;5076364;28;20205;-62
2022/07/08 07:46:07;;;;;;;4.22;1.20;;;26.70;52.70;;;;;;5073145;28;20254;-60
2022/07/08 07:48:34;;;;;;;2.83;1.20;;;27.90;50.60;;;;;;5072166;28;20209;-60
2022/07/08 07:51:00;;;;;;;5.70;1.45;;;28.30;50.00;;;;;;5071936;28;20228;-60
2022/07/08 07:53:28;;;;;;;6.15;1.17;;;28.60;49.80;;;;;;5071873;28;20232;-60
2022/07/08 07:55:57;;;;;;;4.18;1.33;;;27.80;51.00;;;;;;5073297;28;20671;-60
2022/07/08 07:58:24;;;;;;;6.28;1.42;;;27.50;51.50;;;;;;5075155;28;20208;-60
2022/07/08 08:00:51;;;;;;;4.53;1.30;;;28.70;50.30;;;;;;5075090;28;20224;-60
2022/07/08 08:03:18;;;;;;;3.42;1.30;;;30.50;47.40;;;;;;5075196;28;20205;-60
2022/07/08 08:05:44;;;;;;;6.18;1.40;;;31.50;46.50;;;;;;5074650;28;20212;-60
2022/07/08 08:08:12;;;;;;;3.83;1.30;;;32.10;45.40;;;;;;5074485;28;20212;-60
2022/07/08 08:10:40;;;;;;;4.50;1.20;;;32.70;43.50;;;;;;5074193;28;20233;-60
2022/07/08 08:13:07;;;;;;;3.28;1.10;;;33.40;42.80;;;;;;5074193;28;20213;-60
2022/07/08 08:15:33;;;;;;;2.30;0.93;;;32.80;43.00;;;;;;5074100;28;20205;-60
2022/07/08 08:18:00;;;;;;;3.25;1.20;;;32.00;44.80;;;;;;5074978;28;20213;-59
2022/07/08 08:20:29;;;;;;;5.43;1.25;;;30.90;45.10;;;;;;5074199;28;20232;-60
2022/07/08 08:22:56;;;;;;;3.92;1.30;;;29.30;47.60;;;;;;5074418;28;20239;-60
2022/07/08 08:25:23;;;;;;;7.38;1.20;;;27.80;49.70;;;;;;5074504;28;20655;-59
2022/07/08 08:27:51;;;;;;;5.60;1.73;;;27.00;51.10;;;;;;5073591;28;20467;-59
2022/07/08 08:30:18;;;;;;;5.18;1.35;;;26.70;52.60;;;;;;5074138;28;20229;-59
2022/07/08 08:32:45;;;;;;;3.53;1.27;;;26.00;53.30;;;;;;5073359;28;20224;-59
2022/07/08 08:35:11;;;;;;;4.70;1.30;;;25.20;54.30;;;;;;5074137;28;20208;-59
2022/07/08 08:37:38;;;;;;;4.07;1.23;;;24.80;55.70;;;;;;5073440;28;20216;-59
2022/07/08 08:40:07;;;;;;;4.90;1.30;;;24.70;56.20;;;;;;5073827;28;20236;-59
2022/07/08 08:42:34;;;;;;;4.03;1.10;;;25.60;55.30;;;;;;5073368;28;20212;-59
2022/07/08 08:45:03;;;;;;;3.78;1.20;;;28.10;51.50;;;;;;5073264;28;20217;-59
2022/07/08 08:47:31;;;;;;;7.75;1.25;;;30.00;48.50;;;;;;5073437;28;20278;-59
2022/07/08 08:50:53;;;;;;;5.07;1.40;;;30.70;47.50;;;;;;5073190;28;20228;-59
2022/07/08 08:52:48;;;;;;;4.80;1.42;;;30.60;47.90;;;;;;5072787;28;20215;-59
2022/07/08 08:55:20;;;;;;;9.20;2.33;;;29.80;48.40;;;;;;5073251;28;20661;-59
2022/07/08 08:57:47;;;;;;;11.65;1.92;;;28.60;50.30;;;;;;5072851;28;20211;-59
2022/07/08 09:00:15;;;;;;;7.40;1.60;;;27.70;52.50;;;;;;5073233;28;20313;-59
2022/07/08 09:02:42;;;;;;;9.20;1.45;;;26.80;54.00;;;;;;5073535;28;20209;-59
2022/07/08 09:05:09;;;;;;;7.18;1.60;;;25.90;55.60;;;;;;5073749;28;20670;-58
2022/07/08 09:07:36;;;;;;;5.22;1.27;;;25.30;56.60;;;;;;5072986;28;20551;-59
2022/07/08 09:10:03;;;;;;;3.83;1.40;;;24.70;57.30;;;;;;5074087;28;20221;-58
2022/07/08 09:12:30;;;;;;;4.60;1.45;;;24.20;58.80;;;;;;5073651;28;20212;-59
2022/07/08 09:15:00;;;;;;;3.42;1.35;;;23.90;59.20;;;;;;5073718;28;20713;-60
2022/07/08 09:17:28;;;;;;;5.70;1.48;;;23.90;59.00;;;;;;5074081;28;20247;-60
2022/07/08 09:19:55;;;;;;;3.08;1.35;;;24.10;58.80;;;;;;5072621;28;20654;-61
2022/07/08 09:22:23;;;;;;;3.78;1.15;;;23.90;58.70;;;;;;5072771;28;20208;-60
2022/07/08 09:24:50;;;;;;;3.03;1.30;;;23.60;59.00;;;;;;5072522;28;20261;-60
2022/07/08 09:27:17;;;;;;;4.22;1.27;;;23.50;59.70;;;;;;5072321;28;20212;-61
2022/07/08 09:29:57;;;;;;;2.38;1.05;;;23.60;59.60;;;;;;5072368;28;20481;-61
2022/07/08 09:32:24;;;;;;;3.33;1.17;;;23.80;59.60;;;;;;5072033;28;20213;-61
2022/07/08 09:34:52;;;;;;;3.75;1.23;;;24.00;59.30;;;;;;5071895;28;20213;-60
2022/07/08 09:37:20;;;;;;;5.60;1.50;;;24.20;59.30;;;;;;5071845;28;20205;-59
2022/07/08 09:39:48;;;;;;;3.67;0.90;;;24.20;59.60;;;;;;5095733;22;20236;-65
2022/07/08 09:42:16;;;;;;;3.22;1.40;;;24.30;59.20;;;;;;5071660;28;20330;-64
2022/07/08 09:44:43;;;;;;;3.38;1.23;;;24.70;59.20;;;;;;5071662;28;20725;-64
2022/07/08 09:47:11;;;;;;;4.32;1.50;;;25.10;58.40;;;;;;5071153;28;20212;-61
2022/07/08 09:49:41;;;;;;;5.25;1.30;;;25.60;57.50;;;;;;5071897;28;20262;-61
2022/07/08 09:52:11;;;;;;;3.40;1.30;;;25.50;57.10;;;;;;5071806;28;20636;-61
2022/07/08 09:54:38;;;;;;;4.47;1.20;;;25.00;58.00;;;;;;5071645;28;20229;-61
2022/07/08 09:57:07;;;;;;;3.50;1.08;;;24.40;59.30;;;;;;5071455;28;20228;-61
2022/07/08 09:59:36;;;;;;;7.82;1.58;;;23.80;59.50;;;;;;5071145;28;20224;-61
2022/07/08 10:02:04;;;;;;;3.22;1.17;;;23.60;60.60;;;;;;5071571;28;20419;-62
2022/07/08 10:04:31;;;;;;;3.28;1.33;;;23.40;60.40;;;;;;5071448;28;20254;-61
2022/07/08 10:06:59;;;;;;;5.00;1.27;;;23.20;60.80;;;;;;5071268;28;20205;-61
2022/07/08 10:09:28;;;;;;;4.22;1.25;;;23.00;61.10;;;;;;5071263;28;20212;-61
2022/07/08 10:11:54;;;;;;;4.80;1.15;;;22.80;61.20;;;;;;5070678;28;20236;-62
2022/07/08 10:14:22;;;;;;;3.35;1.00;;;22.60;61.20;;;;;;5071488;28;20312;-61
2022/07/08 10:16:50;;;;;;;5.28;1.35;;;22.40;62.40;;;;;;5070871;28;20668;-61
2022/07/08 10:19:21;;;;;;;3.05;1.48;;;22.40;62.20;;;;;;5070809;28;20680;-61
2022/07/08 10:21:53;;;;;;;5.70;1.52;;;22.60;62.70;;;;;;5070991;28;20221;-61
2022/07/08 10:24:25;;;;;;;4.10;0.98;;;22.90;61.90;;;;;;5071030;28;20212;-61
2022/07/08 10:26:57;;;;;;;4.38;1.15;;;22.90;61.10;;;;;;5070982;28;20213;-61
2022/07/08 10:29:30;;;;;;;5.85;1.45;;;23.00;61.80;;;;;;5070971;28;20683;-61
2022/07/08 10:31:56;;;;;;;3.67;0.82;;;22.90;61.80;;;;;;5070942;28;20208;-61
2022/07/08 10:34:30;;;;;;;4.82;1.27;;;22.80;62.40;;;;;;5070628;28;20235;-61
2022/07/08 10:36:57;;;;;;;4.00;1.45;;;22.70;62.20;;;;;;5070689;28;20197;-61
2022/07/08 10:39:26;;;;;;;5.00;1.13;;;22.50;63.80;;;;;;5071126;28;20807;-62
2022/07/08 10:41:58;;;;;;;8.48;1.55;;;22.50;62.50;;;;;;5071139;28;20297;-62
2022/07/08 10:44:52;;;;;;;3.95;1.42;;;22.70;62.30;;;;;;5070966;28;20269;-62
2022/07/08 10:47:25;;;;;;;3.70;1.10;;;22.70;62.00;;;;;;5070010;28;20216;-62
2022/07/08 10:49:51;;;;;;;4.15;1.50;;;22.80;62.90;;;;;;5070991;28;20320;-62
2022/07/08 10:52:21;;;;;;;3.22;1.20;;;22.60;63.50;;;;;;5070643;28;20209;-62
2022/07/08 10:54:47;;;;;;;5.38;1.20;;;22.40;63.40;;;;;;5070597;28;20726;-62
2022/07/08 10:57:27;;;;;;;5.03;1.30;;;22.30;63.30;;;;;;5070409;28;20611;-62
2022/07/08 11:00:08;;;;;;;5.85;1.30;;;22.30;63.40;;;;;;5070069;28;20235;-62
2022/07/08 11:02:40;;;;;;;3.13;1.48;;;22.20;63.80;;;;;;5070437;28;20239;-62
2022/07/08 11:05:07;;;;;;;3.47;1.52;;;22.20;63.80;;;;;;5070708;28;20252;-62
2022/07/08 11:07:34;;;;;;;5.07;1.15;;;22.10;64.10;;;;;;5070615;28;20216;-64
2022/07/08 11:10:06;;;;;;;4.72;1.17;;;22.10;63.70;;;;;;5070535;28;20225;-65
2022/07/08 11:12:36;;;;;;;4.13;1.20;;;22.10;63.10;;;;;;5070235;28;20205;-64
2022/07/08 11:15:06;;;;;;;2.63;1.20;;;21.90;63.20;;;;;;5070681;28;20225;-65
2022/07/08 11:17:34;;;;;;;5.05;1.23;;;22.10;63.80;;;;;;5070513;28;20204;-65
2022/07/08 11:20:02;;;;;;;4.25;1.30;;;22.10;65.00;;;;;;5070681;28;20225;-63
2022/07/08 11:22:34;;;;;;;4.90;1.48;;;22.00;65.00;;;;;;5070985;28;20266;-65
2022/07/08 11:25:01;;;;;;;4.88;1.35;;;22.10;64.40;;;;;;5070405;28;20284;-62
2022/07/08 11:27:31;;;;;;;6.03;1.70;;;22.30;64.40;;;;;;5070359;28;20231;-62
2022/07/08 11:29:59;;;;;;;8.00;1.67;;;22.40;64.40;;;;;;5071339;28;20228;-64
2022/07/08 11:32:27;;;;;;;6.55;1.63;;;22.50;63.60;;;;;;5074682;28;20208;-64
2022/07/08 11:34:55;;;;;;;4.03;1.35;;;22.70;64.10;;;;;;5074841;28;20221;-64
2022/07/08 11:37:22;;;;;;;3.97;1.23;;;22.60;63.20;;;;;;5073967;28;20467;-64
2022/07/08 11:39:49;;;;;;;4.22;1.30;;;22.30;64.00;;;;;;5074649;28;20205;-64
2022/07/08 11:42:17;;;;;;;4.05;1.42;;;22.10;65.20;;;;;;5074276;28;20208;-65
2022/07/08 11:44:44;;;;;;;8.68;1.52;;;22.00;65.20;;;;;;5074360;28;20405;-61
2022/07/08 11:47:17;;;;;;;8.25;1.98;;;22.10;65.60;;;;;;5073953;28;20208;-60
2022/07/08 11:49:45;;;;;;;10.55;1.70;;;22.10;66.30;;;;;;5074428;28;20216;-60
2022/07/08 11:52:12;;;;;;;16.08;1.70;;;22.00;65.70;;;;;;5074042;28;20690;-62
2022/07/08 11:54:39;;;;;;;8.10;1.33;;;22.10;65.70;;;;;;5074072;28;20224;-59
2022/07/08 11:57:06;;;;;;;9.38;1.50;;;22.10;65.10;;;;;;5074073;28;20212;-61
2022/07/08 11:59:35;;;;;;;9.05;1.85;;;22.00;65.50;;;;;;5074020;28;20215;-61
2022/07/08 12:02:04;;;;;;;5.07;1.10;;;21.90;65.50;;;;;;5073825;28;20250;-64
2022/07/08 12:04:32;;;;;;;5.20;1.15;;;22.00;65.40;;;;;;5073805;28;20262;-64
2022/07/08 12:06:59;;;;;;;4.60;1.38;;;22.20;65.30;;;;;;5074145;28;20205;-63
2022/07/08 12:09:27;;;;;;;4.20;1.52;;;22.30;65.30;;;;;;5074132;28;20208;-63
2022/07/08 12:11:55;;;;;;;5.88;2.35;;;22.50;65.00;;;;;;5073467;28;20235;-65
2022/07/08 12:14:23;;;;;;;2.95;1.30;;;22.70;65.40;;;;;;5073852;28;20220;-65
2022/07/08 12:16:52;;;;;;;5.65;1.80;;;22.90;63.90;;;;;;5073595;28;20213;-65
2022/07/08 12:19:27;;;;;;;5.72;1.30;;;23.10;64.70;;;;;;5074102;28;20653;-66
2022/07/08 12:21:56;;;;;;;5.43;1.60;;;23.20;63.80;;;;;;5073866;28;20232;-69
2022/07/08 12:24:25;;;;;;;5.25;1.30;;;23.20;63.50;;;;;;5074238;28;20847;-64
2022/07/08 12:26:58;;;;;;;4.63;1.30;;;23.20;64.10;;;;;;5071088;28;20442;-70
2022/07/08 12:29:26;;;;;;;4.05;1.40;;;23.20;64.10;;;;;;5072650;28;20205;-68
2022/07/08 12:31:53;;;;;;;4.38;1.27;;;23.20;64.30;;;;;;5073587;28;20713;-68
2022/07/08 12:34:22;;;;;;;5.05;1.30;;;23.20;64.80;;;;;;5073246;28;20217;-67
2022/07/08 12:36:49;;;;;;;8.98;1.50;;;23.40;63.70;;;;;;5073229;28;20204;-66
2022/07/08 12:39:18;;;;;;;4.97;1.52;;;23.40;64.00;;;;;;5073546;28;20703;-63
2022/07/08 12:41:57;;;;;;;4.10;1.17;;;23.40;64.10;;;;;;5074104;28;20260;-64
2022/07/08 12:44:31;;;;;;;4.43;1.05;;;23.50;63.60;;;;;;5074158;28;20707;-64
2022/07/08 12:46:57;;;;;;;2.83;0.95;;;23.50;63.10;;;;;;5074044;28;20205;-65
2022/07/08 12:49:24;;;;;;;4.85;1.15;;;23.50;63.30;;;;;;5073934;28;20209;-64
2022/07/08 12:51:51;;;;;;;2.55;0.95;;;23.40;63.80;;;;;;5074134;28;20238;-64